createdAt,value
2023-01-13T00:00:16.133Z,101465.81
2023-01-13T00:02:42.886Z,101459.16
2023-01-13T00:05:12.401Z,101467.59
2023-01-13T00:07:42.839Z,101470.06
2023-01-13T00:10:13.016Z,101463.72
2023-01-13T00:12:48.643Z,101464.16
2023-01-13T00:15:15.658Z,101466.91
2023-01-13T00:17:44.643Z,101454.34
2023-01-13T00:20:11.669Z,101453.91
2023-01-13T00:22:38.289Z,101442.19
2023-01-13T00:25:05.635Z,101446.03
2023-01-13T00:27:33.267Z,101440.66
2023-01-13T00:29:59.864Z,101437.22
2023-01-13T00:32:27.305Z,101424.22
2023-01-13T00:34:54.434Z,101423.13
2023-01-13T00:37:21.273Z,101421.06
2023-01-13T00:39:52.247Z,101419.53
2023-01-13T00:42:22.589Z,101411.13
2023-01-13T00:44:49.865Z,101411.81
2023-01-13T00:47:16.597Z,101402.97
2023-01-13T00:49:52.702Z,101412.22
2023-01-13T00:52:21.986Z,101408.91
2023-01-13T00:54:57.389Z,101402.72
2023-01-13T00:57:30.759Z,101402.19
2023-01-13T00:59:57.396Z,101393.19
2023-01-13T01:02:24.101Z,101391.53
2023-01-13T01:04:50.755Z,101408.38
2023-01-13T01:07:17.394Z,101403.53
2023-01-13T01:09:47.075Z,101404.94
2023-01-13T01:12:15.703Z,101409.88
2023-01-13T01:14:42.329Z,101418.00
2023-01-13T01:17:11.730Z,101415.81
2023-01-13T01:19:40.125Z,101419.94
2023-01-13T01:22:07.776Z,101420.50
2023-01-13T01:24:34.990Z,101424.09
2023-01-13T01:27:01.649Z,101427.28
2023-01-13T01:29:31.073Z,101422.56
2023-01-13T01:31:58.382Z,101424.78
2023-01-13T01:34:24.963Z,101430.41
2023-01-13T01:36:51.575Z,101429.28
2023-01-13T01:39:18.172Z,101427.63
2023-01-13T01:41:44.768Z,101425.47
2023-01-13T01:44:42.262Z,101417.59
2023-01-13T01:47:11.818Z,101412.09
2023-01-13T01:49:45.880Z,101414.44
2023-01-13T01:52:19.507Z,101417.34
2023-01-13T01:55:03.888Z,101416.78
2023-01-13T01:57:39.540Z,101412.63
2023-01-13T02:00:09.384Z,101407.50
2023-01-13T02:02:39.712Z,101401.88
2023-01-13T02:05:09.036Z,101399.94
2023-01-13T02:07:39.152Z,101388.38
2023-01-13T02:10:09.192Z,101396.34
2023-01-13T02:12:36.679Z,101393.88
2023-01-13T02:15:05.569Z,101389.06
2023-01-13T02:17:38.292Z,101389.31
2023-01-13T02:20:23.293Z,101378.97
2023-01-13T02:22:58.714Z,101372.09
2023-01-13T02:25:53.078Z,101362.56
2023-01-13T02:28:40.551Z,101358.97
2023-01-13T02:31:10.510Z,101349.44
2023-01-13T02:34:09.648Z,101356.34
2023-01-13T02:36:49.058Z,101355.66
2023-01-13T02:39:48.992Z,101363.94
2023-01-13T02:42:27.819Z,101362.53
2023-01-13T02:45:07.723Z,101359.50
2023-01-13T02:47:37.992Z,101353.44
2023-01-13T02:50:13.029Z,101354.53
2023-01-13T02:52:44.560Z,101358.69
2023-01-13T02:55:19.892Z,101347.66
2023-01-13T02:57:48.392Z,101346.81
2023-01-13T03:00:17.059Z,101340.88
2023-01-13T03:02:45.469Z,101341.28
2023-01-13T03:05:16.381Z,101336.47
2023-01-13T03:08:03.496Z,101333.53
2023-01-13T03:10:33.257Z,101326.25
2023-01-13T03:13:44.721Z,101314.53
2023-01-13T03:16:42.324Z,101301.44
2023-01-13T03:19:41.367Z,101286.66
2023-01-13T03:22:31.572Z,101293.00
2023-01-13T03:25:20.841Z,101294.00
2023-01-13T03:28:00.582Z,101290.28
2023-01-13T03:30:33.033Z,101288.06
2023-01-13T03:33:14.609Z,101289.84
2023-01-13T03:35:45.961Z,101290.41
2023-01-13T03:38:19.522Z,101279.09
2023-01-13T03:40:54.497Z,101281.44
2023-01-13T03:43:57.912Z,101273.28
2023-01-13T03:46:36.298Z,101275.50
2023-01-13T03:49:10.678Z,101273.03
2023-01-13T03:51:43.628Z,101263.09
2023-01-13T03:54:11.981Z,101262.53
2023-01-13T03:56:54.735Z,101265.59
2023-01-13T03:59:30.115Z,101264.91
2023-01-13T04:02:23.930Z,101271.09
2023-01-13T04:04:59.715Z,101269.00
2023-01-13T04:07:41.583Z,101280.19
2023-01-13T04:10:14.726Z,101280.63
2023-01-13T04:13:13.446Z,101284.34
2023-01-13T04:15:49.951Z,101297.00
2023-01-13T04:18:26.007Z,101292.47
2023-01-13T04:21:00.544Z,101290.81
2023-01-13T04:23:33.697Z,101296.56
2023-01-13T04:26:06.116Z,101297.41
2023-01-13T04:28:36.751Z,101303.22
2023-01-13T04:31:07.146Z,101306.94
2023-01-13T04:33:34.351Z,101305.72
2023-01-13T04:36:06.173Z,101305.31
2023-01-13T04:38:38.633Z,101313.44
2023-01-13T04:41:12.755Z,101308.91
2023-01-13T04:43:43.555Z,101309.03
2023-01-13T04:46:20.322Z,101303.09
2023-01-13T04:48:55.921Z,101307.22
2023-01-13T04:51:22.509Z,101302.69
2023-01-13T04:53:51.657Z,101305.31
2023-01-13T04:56:19.363Z,101307.09
2023-01-13T04:58:45.965Z,101298.25
2023-01-13T05:01:17.752Z,101307.25
2023-01-13T05:03:47.959Z,101309.84
2023-01-13T05:06:15.501Z,101314.41
2023-01-13T05:08:45.543Z,101313.03
2023-01-13T05:11:12.127Z,101312.91
2023-01-13T05:13:41.789Z,101318.41
2023-01-13T05:16:11.419Z,101337.31
2023-01-13T05:18:40.273Z,101338.97
2023-01-13T05:21:13.684Z,101346.00
2023-01-13T05:23:40.282Z,101354.13
2023-01-13T05:26:09.886Z,101344.34
2023-01-13T05:28:40.288Z,101351.94
2023-01-13T05:31:07.284Z,101359.53
2023-01-13T05:33:39.869Z,101369.56
2023-01-13T05:36:06.805Z,101373.75
2023-01-13T05:38:36.996Z,101382.44
2023-01-13T05:41:08.172Z,101381.44
2023-01-13T05:43:41.502Z,101381.31
2023-01-13T05:46:13.813Z,101371.81
2023-01-13T05:48:43.288Z,101363.22
2023-01-13T05:51:11.948Z,101353.31
2023-01-13T05:53:39.111Z,101347.50
2023-01-13T05:56:10.811Z,101352.47
2023-01-13T05:58:38.292Z,101366.00
2023-01-13T06:01:12.319Z,101366.69
2023-01-13T06:03:51.865Z,101378.69
2023-01-13T06:06:18.726Z,101386.94
2023-01-13T06:08:46.835Z,101384.06
2023-01-13T06:11:19.168Z,101379.50
2023-01-13T06:13:52.309Z,101372.91
2023-01-13T06:16:18.966Z,101374.53
2023-01-13T06:18:49.881Z,101376.47
2023-01-13T06:21:16.550Z,101376.72
2023-01-13T06:23:46.388Z,101375.78
2023-01-13T06:26:24.899Z,101382.25
2023-01-13T06:28:51.565Z,101379.38
2023-01-13T06:31:19.183Z,101371.91
2023-01-13T06:33:50.747Z,101375.22
2023-01-13T06:36:30.944Z,101370.13
2023-01-13T06:38:59.972Z,101378.69
2023-01-13T06:41:31.249Z,101383.94
2023-01-13T06:43:57.819Z,101376.34
2023-01-13T06:46:25.587Z,101381.31
2023-01-13T06:48:52.122Z,101383.94
2023-01-13T06:51:18.707Z,101373.16
2023-01-13T06:53:45.289Z,101382.69
2023-01-13T06:56:11.877Z,101381.03
2023-01-13T06:58:38.458Z,101388.47
2023-01-13T07:01:05.146Z,101383.94
2023-01-13T07:03:31.775Z,101372.34
2023-01-13T07:05:58.303Z,101370.28
2023-01-13T07:08:27.556Z,101373.97
2023-01-13T07:10:54.540Z,101371.78
2023-01-13T07:13:24.769Z,101375.38
2023-01-13T07:16:03.506Z,101381.47
2023-01-13T07:18:31.897Z,101375.50
2023-01-13T07:21:06.742Z,101385.88
2023-01-13T07:23:40.554Z,101392.78
2023-01-13T07:26:09.498Z,101388.22
2023-01-13T07:28:36.776Z,101379.09
2023-01-13T07:31:03.815Z,101380.88
2023-01-13T07:33:30.472Z,101380.22
2023-01-13T07:35:58.695Z,101380.63
2023-01-13T07:38:25.632Z,101383.78
2023-01-13T07:40:52.240Z,101383.66
2023-01-13T07:43:18.860Z,101382.81
2023-01-13T07:45:45.565Z,101378.97
2023-01-13T07:48:20.976Z,101388.78
2023-01-13T07:50:47.542Z,101400.25
2023-01-13T07:53:14.139Z,101394.31
2023-01-13T07:55:44.077Z,101392.91
2023-01-13T07:58:11.280Z,101389.31
2023-01-13T08:00:38.796Z,101391.25
2023-01-13T08:03:05.446Z,101386.00
2023-01-13T08:05:42.945Z,101382.97
2023-01-13T08:08:12.873Z,101383.13
2023-01-13T08:10:45.497Z,101386.13
2023-01-13T08:13:14.873Z,101384.06
2023-01-13T08:15:42.568Z,101383.63
2023-01-13T08:18:09.209Z,101383.63
2023-01-13T08:20:35.808Z,101397.84
2023-01-13T08:23:02.456Z,101391.78
2023-01-13T08:25:33.610Z,101408.59
2023-01-13T08:28:00.179Z,101410.00
2023-01-13T08:30:30.466Z,101401.03
2023-01-13T08:32:57.092Z,101388.03
2023-01-13T08:35:24.019Z,101388.03
2023-01-13T08:37:51.561Z,101380.16
2023-01-13T08:40:23.336Z,101385.28
2023-01-13T08:42:49.906Z,101390.09
2023-01-13T08:45:16.628Z,101395.19
2023-01-13T08:47:43.184Z,101399.59
2023-01-13T08:50:10.464Z,101401.41
2023-01-13T08:52:37.536Z,101400.00
2023-01-13T08:55:04.512Z,101394.06
2023-01-13T08:57:31.147Z,101387.44
2023-01-13T08:59:57.791Z,101385.53
2023-01-13T09:02:26.072Z,101390.97
2023-01-13T09:04:53.798Z,101392.34
2023-01-13T09:07:21.402Z,101392.50
2023-01-13T09:09:47.948Z,101400.63
2023-01-13T09:12:16.224Z,101400.56
2023-01-13T09:14:42.819Z,101390.59
2023-01-13T09:17:09.398Z,101396.97
2023-01-13T09:19:36.143Z,101399.06
2023-01-13T09:22:03.052Z,101400.84
2023-01-13T09:24:30.139Z,101395.97
2023-01-13T09:26:56.722Z,101388.41
2023-01-13T09:29:23.456Z,101390.19
2023-01-13T09:31:50.076Z,101384.63
2023-01-13T09:34:20.681Z,101385.53
2023-01-13T09:36:47.309Z,101373.59
2023-01-13T09:39:14.279Z,101371.94
2023-01-13T09:41:53.504Z,101377.44
2023-01-13T09:44:27.907Z,101379.03
2023-01-13T09:47:02.717Z,101371.41
2023-01-13T09:49:37.424Z,101384.63
2023-01-13T09:52:14.682Z,101383.19
2023-01-13T09:54:43.876Z,101372.88
2023-01-13T09:57:13.297Z,101376.16
2023-01-13T09:59:40.343Z,101368.66
2023-01-13T10:02:31.920Z,101368.13
2023-01-13T10:05:36.376Z,101361.91
2023-01-13T10:08:10.371Z,101355.72
2023-01-13T10:10:47.128Z,101338.13
2023-01-13T10:13:21.891Z,101340.91
2023-01-13T10:16:13.070Z,101352.38
2023-01-13T10:19:01.111Z,101351.84
2023-01-13T10:21:55.540Z,101357.94
2023-01-13T10:24:38.627Z,101354.88
2023-01-13T10:27:18.845Z,101339.47
2023-01-13T10:29:55.592Z,101337.53
2023-01-13T10:32:30.627Z,101323.06
2023-01-13T10:34:58.157Z,101322.94
2023-01-13T10:37:31.633Z,101326.75
2023-01-13T10:40:01.970Z,101327.28
2023-01-13T10:42:30.030Z,101315.78
2023-01-13T10:45:00.439Z,101320.94
2023-01-13T10:47:28.751Z,101319.19
2023-01-13T10:50:13.451Z,101326.00
2023-01-13T10:53:01.521Z,101316.09
2023-01-13T10:55:32.797Z,101315.63
2023-01-13T10:58:27.802Z,101321.56
2023-01-13T11:01:21.037Z,101317.63
2023-01-13T11:03:56.712Z,101323.44
2023-01-13T11:06:37.651Z,101326.16
2023-01-13T11:09:19.816Z,101317.34
2023-01-13T11:11:54.255Z,101307.09
2023-01-13T11:14:54.453Z,101307.03
2023-01-13T11:17:29.709Z,101300.78
2023-01-13T11:20:11.245Z,101308.66
2023-01-13T11:22:51.433Z,101302.25
2023-01-13T11:28:37.640Z,101291.91
2023-01-13T11:31:23.559Z,101292.63
2023-01-13T11:34:01.215Z,101279.78
2023-01-13T11:36:51.380Z,101277.28
2023-01-13T11:39:50.276Z,101267.03
2023-01-13T11:42:36.732Z,101264.50
2023-01-13T11:45:15.223Z,101252.63
2023-01-13T11:47:41.773Z,101246.25
2023-01-13T11:50:47.652Z,101251.31
2023-01-13T11:53:41.920Z,101246.25
2023-01-13T11:56:29.153Z,101244.03
2023-01-13T11:59:44.324Z,101239.41
2023-01-13T12:02:38.277Z,101225.44
2023-01-13T12:05:21.417Z,101224.19
2023-01-13T12:08:04.579Z,101226.81
2023-01-13T12:10:49.157Z,101227.63
2023-01-13T12:13:35.213Z,101219.22
2023-01-13T12:16:26.058Z,101220.19
2023-01-13T12:19:29.561Z,101225.09
2023-01-13T12:22:32.609Z,101235.31
2023-01-13T12:25:18.760Z,101234.63
2023-01-13T12:27:59.506Z,101231.25
2023-01-13T12:30:34.299Z,101232.09
2023-01-13T12:33:19.843Z,101227.63
2023-01-13T12:36:25.025Z,101221.25
2023-01-13T12:39:14.885Z,101218.16
2023-01-13T12:42:15.057Z,101223.84
2023-01-13T12:45:11.404Z,101216.44
2023-01-13T12:47:43.912Z,101211.59
2023-01-13T12:50:22.310Z,101202.22
2023-01-13T12:52:53.492Z,101206.97
2023-01-13T12:55:30.169Z,101216.00
2023-01-13T12:58:10.479Z,101215.75
2023-01-13T13:00:44.905Z,101213.78
2023-01-13T13:03:12.473Z,101215.47
2023-01-13T13:05:57.183Z,101211.06
2023-01-13T13:08:48.807Z,101198.81
2023-01-13T13:11:46.888Z,101211.88
2023-01-13T13:14:14.367Z,101207.19
2023-01-13T13:16:51.313Z,101207.50
2023-01-13T13:19:17.855Z,101206.69
2023-01-13T13:22:12.166Z,101217.53
2023-01-13T13:24:43.159Z,101207.34
2023-01-13T13:27:39.784Z,101207.47
2023-01-13T13:30:24.521Z,101214.91
2023-01-13T13:33:15.893Z,101216.22
2023-01-13T13:36:40.034Z,101219.38
2023-01-13T13:39:30.292Z,101221.19
2023-01-13T13:42:10.953Z,101212.94
2023-01-13T13:44:40.762Z,101205.34
2023-01-13T13:47:08.142Z,101200.56
2023-01-13T13:49:53.373Z,101188.06
2023-01-13T13:52:35.050Z,101186.75
2023-01-13T13:55:20.958Z,101191.84
2023-01-13T13:57:51.564Z,101203.81
2023-01-13T14:00:21.071Z,101194.13
2023-01-13T14:02:58.599Z,101191.19
2023-01-13T14:05:32.141Z,101193.16
2023-01-13T14:08:21.241Z,101186.88
2023-01-13T14:10:52.109Z,101184.91
2023-01-13T14:13:21.978Z,101192.59
2023-01-13T14:16:06.803Z,101195.53
2023-01-13T14:18:42.450Z,101188.53
2023-01-13T14:21:28.278Z,101179.22
2023-01-13T14:24:10.713Z,101190.63
2023-01-13T14:26:40.318Z,101188.09
2023-01-13T14:29:18.139Z,101175.22
2023-01-13T14:31:49.165Z,101182.31
2023-01-13T14:34:31.001Z,101190.69
2023-01-13T14:37:09.521Z,101194.75
2023-01-13T14:39:42.542Z,101191.28
2023-01-13T14:42:13.629Z,101193.78
2023-01-13T14:44:54.399Z,101189.31
2023-01-13T14:47:29.743Z,101187.16
2023-01-13T14:50:30.238Z,101187.50
2023-01-13T14:52:58.544Z,101183.91
2023-01-13T14:55:38.537Z,101174.81
2023-01-13T14:58:25.086Z,101175.09
2023-01-13T15:01:15.067Z,101182.22
2023-01-13T15:03:46.092Z,101173.16
2023-01-13T15:06:29.019Z,101179.56
2023-01-13T15:08:55.853Z,101179.09
2023-01-13T15:11:33.560Z,101185.16
2023-01-13T15:14:01.673Z,101191.25
2023-01-13T15:16:29.000Z,101199.72
2023-01-13T15:18:58.754Z,101209.53
2023-01-13T15:21:25.358Z,101203.31
2023-01-13T15:23:57.723Z,101208.25
2023-01-13T15:26:32.706Z,101213.75
2023-01-13T15:29:03.801Z,101220.75
2023-01-13T15:31:35.166Z,101230.56
2023-01-13T15:34:01.722Z,101234.16
2023-01-13T15:36:35.116Z,101238.81
2023-01-13T15:39:07.728Z,101237.56
2023-01-13T15:41:35.187Z,101226.72
2023-01-13T15:44:06.778Z,101228.38
2023-01-13T15:46:37.145Z,101233.84
2023-01-13T15:49:35.535Z,101237.34
2023-01-13T15:52:22.025Z,101253.88
2023-01-13T15:54:52.122Z,101258.03
2023-01-13T15:57:23.252Z,101254.22
2023-01-13T16:00:01.525Z,101248.59
2023-01-13T16:02:32.282Z,101246.56
2023-01-13T16:05:02.523Z,101237.69
2023-01-13T16:07:37.136Z,101230.13
2023-01-13T16:10:14.201Z,101221.72
2023-01-13T16:12:40.759Z,101220.97
2023-01-13T16:15:13.370Z,101229.03
2023-01-13T16:17:51.758Z,101229.03
2023-01-13T16:20:29.277Z,101252.34
2023-01-13T16:22:58.505Z,101257.63
2023-01-13T16:25:41.423Z,101250.78
2023-01-13T16:28:26.488Z,101247.31
2023-01-13T16:30:57.701Z,101248.81
2023-01-13T16:33:33.280Z,101245.13
2023-01-13T16:36:17.414Z,101237.72
2023-01-13T16:38:48.739Z,101221.22
2023-01-13T16:41:25.914Z,101228.03
2023-01-13T16:44:01.155Z,101228.19
2023-01-13T16:46:30.137Z,101226.59
2023-01-13T16:49:01.761Z,101225.84
2023-01-13T16:51:29.091Z,101230.75
2023-01-13T16:53:55.701Z,101234.41
2023-01-13T16:56:40.845Z,101245.50
2023-01-13T16:59:12.766Z,101260.44
2023-01-13T17:01:42.716Z,101264.31
2023-01-13T17:04:20.424Z,101267.13
2023-01-13T17:06:50.467Z,101263.00
2023-01-13T17:09:22.792Z,101262.38
2023-01-13T17:11:55.580Z,101269.47
2023-01-13T17:14:24.137Z,101267.03
2023-01-13T17:16:53.880Z,101277.41
2023-01-13T17:19:22.124Z,101281.22
2023-01-13T17:21:58.932Z,101285.75
2023-01-13T17:24:26.071Z,101289.34
2023-01-13T17:26:52.692Z,101301.09
2023-01-13T17:29:21.914Z,101301.09
2023-01-13T17:31:52.099Z,101307.47
2023-01-13T17:34:30.942Z,101311.22
2023-01-13T17:37:06.702Z,101314.16
2023-01-13T17:39:51.297Z,101311.03
2023-01-13T17:42:18.245Z,101313.19
2023-01-13T17:44:44.917Z,101315.91
2023-01-13T17:47:11.511Z,101305.66
2023-01-13T17:49:45.763Z,101301.75
2023-01-13T17:52:12.550Z,101304.47
2023-01-13T17:54:49.664Z,101302.50
2023-01-13T17:57:27.732Z,101306.97
2023-01-13T17:59:59.247Z,101299.34
2023-01-13T18:02:33.543Z,101283.47
2023-01-13T18:05:05.968Z,101290.63
2023-01-13T18:07:42.317Z,101297.13
2023-01-13T18:10:14.090Z,101294.25
2023-01-13T18:12:51.405Z,101298.91
2023-01-13T18:15:20.289Z,101301.22
2023-01-13T18:17:51.922Z,101303.56
2023-01-13T18:20:20.488Z,101289.63
2023-01-13T18:22:47.768Z,101293.44
2023-01-13T18:25:23.318Z,101295.00
2023-01-13T18:27:49.986Z,101297.44
2023-01-13T18:30:27.409Z,101293.00
2023-01-13T18:32:56.184Z,101297.75
2023-01-13T18:35:32.332Z,101296.31
2023-01-13T18:38:08.747Z,101309.81
2023-01-13T18:40:44.191Z,101314.38
2023-01-13T18:43:19.460Z,101302.63
2023-01-13T18:45:58.696Z,101306.06
2023-01-13T18:48:38.206Z,101322.41
2023-01-13T18:51:17.542Z,101328.22
2023-01-13T18:53:54.837Z,101332.38
2023-01-13T18:56:35.161Z,101337.81
2023-01-13T18:59:15.755Z,101339.75
2023-01-13T19:01:55.251Z,101355.81
2023-01-13T19:04:32.558Z,101356.34
2023-01-13T19:07:13.433Z,101357.13
2023-01-13T19:09:51.856Z,101364.44
2023-01-13T19:12:36.336Z,101361.06
2023-01-13T19:15:13.778Z,101363.16
2023-01-13T19:17:51.481Z,101353.34
2023-01-13T19:20:25.387Z,101357.88
2023-01-13T19:23:07.603Z,101354.50
2023-01-13T19:25:36.809Z,101371.34
2023-01-13T19:28:04.803Z,101385.88
2023-01-13T19:30:31.492Z,101387.53
2023-01-13T19:33:21.887Z,101383.38
2023-01-13T19:36:07.213Z,101373.28
2023-01-13T19:38:41.597Z,101372.63
2023-01-13T19:41:20.288Z,101374.81
2023-01-13T19:43:59.082Z,101392.81
2023-01-13T19:46:31.740Z,101398.69
2023-01-13T19:49:05.800Z,101395.63
2023-01-13T19:51:33.397Z,101401.69
2023-01-13T19:54:01.356Z,101395.38
2023-01-13T19:56:36.382Z,101398.56
2023-01-13T19:59:04.093Z,101404.47
2023-01-13T20:01:40.714Z,101407.41
2023-01-13T20:04:17.527Z,101405.88
2023-01-13T20:06:45.207Z,101399.81
2023-01-13T20:09:20.256Z,101402.56
2023-01-13T20:11:50.937Z,101397.47
2023-01-13T20:14:20.794Z,101392.50
2023-01-13T20:16:55.592Z,101395.66
2023-01-13T20:19:30.621Z,101401.88
2023-01-13T20:21:58.266Z,101405.19
2023-01-13T20:24:30.865Z,101406.72
2023-01-13T20:27:01.531Z,101414.56
2023-01-13T20:29:38.420Z,101416.66
2023-01-13T20:32:07.551Z,101415.13
2023-01-13T20:34:40.767Z,101410.03
2023-01-13T20:37:12.427Z,101412.38
2023-01-13T20:39:46.490Z,101414.19
2023-01-13T20:42:18.865Z,101409.63
2023-01-13T20:44:59.133Z,101411.28
2023-01-13T20:47:31.727Z,101407.69
2023-01-13T20:50:09.450Z,101406.69
2023-01-13T20:52:45.918Z,101404.38
2023-01-13T20:55:21.281Z,101409.88
2023-01-13T20:57:48.918Z,101424.81
2023-01-13T21:00:28.469Z,101432.25
2023-01-13T21:03:02.362Z,101431.97
2023-01-13T21:05:36.172Z,101426.56
2023-01-13T21:08:11.532Z,101433.91
2023-01-13T21:10:38.849Z,101436.75
2023-01-13T21:13:18.868Z,101437.88
2023-01-13T21:15:48.131Z,101432.53
2023-01-13T21:18:21.960Z,101426.88
2023-01-13T21:20:57.980Z,101422.59
2023-01-13T21:23:33.219Z,101408.63
2023-01-13T21:26:13.229Z,101419.78
2023-01-13T21:28:47.238Z,101426.81
2023-01-13T21:31:23.753Z,101419.13
2023-01-13T21:34:04.076Z,101418.69
2023-01-13T21:36:36.900Z,101421.19
2023-01-13T21:39:11.057Z,101419.94
2023-01-13T21:41:39.972Z,101415.66
2023-01-13T21:44:26.891Z,101429.13
2023-01-13T21:46:58.779Z,101429.69
2023-01-13T21:49:30.999Z,101438.50
2023-01-13T21:51:58.275Z,101440.34
2023-01-13T21:54:34.023Z,101449.50
2023-01-13T21:57:10.739Z,101433.34
2023-01-13T21:59:47.560Z,101426.13
2023-01-13T22:02:25.211Z,101420.56
2023-01-13T22:04:59.477Z,101413.91
2023-01-13T22:07:28.514Z,101422.03
2023-01-13T22:10:01.109Z,101421.91
2023-01-13T22:12:28.087Z,101422.53
2023-01-13T22:15:02.870Z,101429.31
2023-01-13T22:17:35.041Z,101438.13
2023-01-13T22:20:01.977Z,101440.06
2023-01-13T22:22:28.954Z,101444.47
2023-01-13T22:25:03.106Z,101452.78
2023-01-13T22:27:40.646Z,101451.19
2023-01-13T22:30:12.579Z,101448.34
2023-01-13T22:32:53.833Z,101448.56
2023-01-13T22:35:29.584Z,101456.13
2023-01-13T22:37:58.770Z,101456.91
2023-01-13T22:40:28.035Z,101451.66
2023-01-13T22:43:04.503Z,101452.75
2023-01-13T22:45:31.125Z,101457.22
2023-01-13T22:48:07.841Z,101459.28
2023-01-13T22:50:44.364Z,101463.94
2023-01-13T22:53:15.354Z,101466.72
2023-01-13T22:55:43.850Z,101458.34
2023-01-13T22:58:19.448Z,101447.75
2023-01-13T23:00:49.495Z,101451.91
2023-01-13T23:03:23.570Z,101454.47
2023-01-13T23:06:04.508Z,101460.66
2023-01-13T23:08:45.329Z,101462.31
2023-01-13T23:11:14.033Z,101476.75
2023-01-13T23:13:41.565Z,101466.97
2023-01-13T23:16:26.819Z,101479.81
2023-01-13T23:18:56.149Z,101474.13
2023-01-13T23:21:41.117Z,101479.00
2023-01-13T23:24:19.235Z,101479.50
2023-01-13T23:26:54.464Z,101485.56
2023-01-13T23:29:34.147Z,101474.41
2023-01-13T23:32:11.225Z,101479.91
2023-01-13T23:34:39.573Z,101493.94
2023-01-13T23:37:06.317Z,101494.03
2023-01-13T23:39:40.268Z,101486.81
2023-01-13T23:42:21.027Z,101490.16
2023-01-13T23:44:58.735Z,101480.53
2023-01-13T23:47:29.169Z,101478.47
2023-01-13T23:49:58.680Z,101472.31
2023-01-13T23:52:36.548Z,101467.03
2023-01-13T23:55:20.068Z,101462.66
2023-01-13T23:57:48.195Z,101470.50
